Time;durP1;ratioP1;P1;durP2;ratioP2;P2;SDS_P1;SDS_P2;PMS_P1;PMS_P2;Temp;Humidity;BMP_temperature;BMP_pressure;BME280_temperature;BME280_humidity;BME280_pressure;Samples;Min_cycle;Max_cycle;Signal;HPM_P1;HPM_P2
2023/04/12 00:00:53;;;;;;;7.68;1.40;;;6.90;99.90;;;;;;7401190;19;19951;-76
2023/04/12 00:03:23;;;;;;;3.53;2.00;;;6.90;99.90;;;;;;7401959;19;20364;-77
2023/04/12 00:05:54;;;;;;;4.35;1.33;;;7.00;99.90;;;;;;7404127;19;19955;-76
2023/04/12 00:08:25;;;;;;;4.28;1.10;;;6.90;99.90;;;;;;7401623;19;19922;-76
2023/04/12 00:10:56;;;;;;;2.58;1.10;;;7.20;99.90;;;;;;7401494;19;19929;-76
2023/04/12 00:13:25;;;;;;;3.95;0.82;;;6.90;99.90;;;;;;7399627;19;19962;-76
2023/04/12 00:15:54;;;;;;;3.13;1.10;;;7.00;99.90;;;;;;7401068;19;19952;-76
2023/04/12 00:18:24;;;;;;;5.45;1.67;;;6.90;99.90;;;;;;7401019;19;20635;-76
2023/04/12 00:20:53;;;;;;;2.83;1.05;;;6.90;99.90;;;;;;7401798;19;19922;-76
2023/04/12 00:23:22;;;;;;;4.03;1.38;;;6.90;99.90;;;;;;7395329;19;19935;-77
2023/04/12 00:25:52;;;;;;;5.85;1.17;;;6.90;99.90;;;;;;7395554;19;20308;-76
2023/04/12 00:28:27;;;;;;;;;;;7.30;99.90;;;;;;7401837;19;19919;-76
2023/04/12 00:30:56;;;;;;;3.88;1.00;;;6.90;99.90;;;;;;7401343;19;20009;-76
2023/04/12 00:33:25;;;;;;;4.63;0.95;;;7.70;99.90;;;;;;7400101;19;19922;-77
2023/04/12 00:35:54;;;;;;;5.93;1.60;;;7.00;99.90;;;;;;7400296;19;19943;-76
2023/04/12 00:38:23;;;;;;;6.30;1.70;;;7.30;99.90;;;;;;7400476;19;20468;-76
2023/04/12 00:40:54;;;;;;;4.70;1.35;;;6.90;99.90;;;;;;7401279;19;19918;-76
2023/04/12 00:43:26;;;;;;;6.22;1.15;;;7.40;99.90;;;;;;7401325;19;19951;-77
2023/04/12 00:45:59;;;;;;;8.57;1.58;;;7.00;99.90;;;;;;7403484;19;19938;-77
2023/04/12 00:48:28;;;;;;;7.05;1.40;;;7.80;99.90;;;;;;7400906;19;19922;-77
2023/04/12 00:50:58;;;;;;;4.70;1.20;;;7.00;99.90;;;;;;7401584;19;19926;-77
2023/04/12 00:53:27;;;;;;;2.47;1.02;;;7.10;99.90;;;;;;7401050;19;19922;-76
2023/04/12 00:55:58;;;;;;;7.95;1.67;;;7.00;99.90;;;;;;7400615;19;20510;-76
2023/04/12 00:58:27;;;;;;;5.03;1.02;;;7.70;99.90;;;;;;7399500;19;19918;-77
2023/04/12 01:00:59;;;;;;;4.60;1.30;;;6.80;99.90;;;;;;7398597;19;19929;-76
2023/04/12 01:03:29;;;;;;;;;;;7.00;99.90;;;;;;7400976;19;20368;-75
2023/04/12 01:06:15;;;;;;;7.45;1.42;;;6.90;99.90;;;;;;7399192;19;20264;-77
2023/04/12 01:08:55;;;;;;;2.08;1.13;;;6.90;99.90;;;;;;7397333;19;19915;-77
2023/04/12 01:11:32;;;;;;;5.45;1.08;;;7.40;99.90;;;;;;7397393;19;19919;-76
2023/04/12 01:14:08;;;;;;;4.78;1.35;;;7.60;99.90;;;;;;7399575;19;19926;-76
2023/04/12 01:16:44;;;;;;;12.93;1.80;;;7.00;99.90;;;;;;7397816;19;19946;-76
2023/04/12 01:19:34;;;;;;;4.13;1.27;;;7.00;99.90;;;;;;7397681;19;19922;-76
2023/04/12 01:22:13;;;;;;;2.90;1.00;;;8.20;99.90;;;;;;7397975;19;19941;-76
2023/04/12 01:24:54;;;;;;;4.22;1.40;;;6.90;99.90;;;;;;7399373;19;20340;-76
2023/04/12 01:27:47;;;;;;;5.57;1.20;;;7.10;99.90;;;;;;7401115;19;19922;-76
2023/04/12 01:30:19;;;;;;;5.43;1.45;;;7.10;99.90;;;;;;7399638;19;19958;-76
2023/04/12 01:32:50;;;;;;;;;;;7.10;99.90;;;;;;7401680;19;20405;-76
2023/04/12 01:35:20;;;;;;;4.72;1.73;;;7.30;99.90;;;;;;7400801;19;19933;-76
2023/04/12 01:37:52;;;;;;;6.22;1.40;;;7.10;99.90;;;;;;7398862;19;20512;-76
2023/04/12 01:40:22;;;;;;;5.10;1.50;;;7.00;99.90;;;;;;7398689;19;19937;-76
2023/04/12 01:43:06;;;;;;;6.50;1.80;;;7.10;99.90;;;;;;7399270;19;19915;-76
2023/04/12 01:45:35;;;;;;;4.57;1.30;;;7.00;99.90;;;;;;7400453;19;19921;-76
2023/04/12 01:48:05;;;;;;;5.40;1.58;;;7.00;99.90;;;;;;7398369;19;19950;-76
2023/04/12 01:50:43;;;;;;;5.53;1.60;;;6.90;99.90;;;;;;7399703;19;20288;-75
2023/04/12 01:53:16;;;;;;;5.32;1.48;;;6.90;99.90;;;;;;7399314;19;19943;-76
2023/04/12 01:55:47;;;;;;;6.15;1.75;;;7.00;99.90;;;;;;7399467;19;19929;-76
2023/04/12 01:58:23;;;;;;;7.18;1.90;;;7.00;99.90;;;;;;7396521;19;19940;-76
2023/04/12 02:00:53;;;;;;;4.88;1.40;;;6.90;99.90;;;;;;7398024;19;19946;-75
2023/04/12 02:03:23;;;;;;;6.28;1.58;;;7.50;99.90;;;;;;7398059;19;19918;-75
2023/04/12 02:05:54;;;;;;;4.35;1.65;;;6.90;99.90;;;;;;7395535;19;19943;-75
2023/04/12 02:08:23;;;;;;;6.78;1.80;;;7.40;99.90;;;;;;7394582;19;20579;-75
2023/04/12 02:10:53;;;;;;;7.70;1.98;;;6.90;99.90;;;;;;7398065;19;19937;-74
2023/04/12 02:13:25;;;;;;;3.05;1.48;;;7.00;99.90;;;;;;7397826;19;19942;-77
2023/04/12 02:15:58;;;;;;;7.80;1.98;;;7.50;99.90;;;;;;7402854;19;19915;-75
2023/04/12 02:18:27;;;;;;;5.95;2.85;;;7.00;99.90;;;;;;7404821;19;19915;-75
2023/04/12 02:20:57;;;;;;;5.95;1.60;;;7.90;99.90;;;;;;7405098;19;19918;-75
2023/04/12 02:23:28;;;;;;;8.18;2.03;;;7.40;99.90;;;;;;7403755;19;19922;-75
2023/04/12 02:25:57;;;;;;;4.80;1.90;;;6.80;99.90;;;;;;7400818;19;19938;-76
2023/04/12 02:28:30;;;;;;;5.55;1.90;;;6.90;99.90;;;;;;7404387;19;19988;-75
2023/04/12 02:30:59;;;;;;;6.63;1.65;;;6.90;99.90;;;;;;7403291;19;19911;-75
2023/04/12 02:33:29;;;;;;;5.57;1.77;;;6.90;99.90;;;;;;7402299;19;20396;-76
2023/04/12 02:36:01;;;;;;;5.15;1.27;;;7.50;99.90;;;;;;7402893;19;19922;-75
2023/04/12 02:38:30;;;;;;;5.93;1.40;;;7.10;99.90;;;;;;7403338;19;19935;-75
2023/04/12 02:40:59;;;;;;;3.17;1.50;;;7.00;99.90;;;;;;7402772;19;20134;-76
2023/04/12 02:43:39;;;;;;;16.90;2.40;;;6.90;99.90;;;;;;7404877;19;19919;-75
2023/04/12 02:46:09;;;;;;;7.55;1.65;;;7.00;99.90;;;;;;7402265;19;19929;-76
2023/04/12 02:48:38;;;;;;;8.40;1.90;;;7.00;99.90;;;;;;7405202;19;19922;-75
2023/04/12 02:51:07;;;;;;;6.80;1.73;;;7.00;99.90;;;;;;7401931;19;19927;-75
2023/04/12 02:53:38;;;;;;;3.50;1.80;;;6.90;99.90;;;;;;7402272;19;19929;-75
2023/04/12 02:56:07;;;;;;;2.90;1.55;;;6.90;99.90;;;;;;7402375;19;19925;-75
2023/04/12 02:58:39;;;;;;;9.13;1.67;;;6.90;99.90;;;;;;7402613;19;19935;-75
2023/04/12 03:01:11;;;;;;;5.75;1.50;;;7.10;99.90;;;;;;7403786;19;19926;-76
2023/04/12 03:03:40;;;;;;;7.25;1.75;;;7.10;99.90;;;;;;7403875;19;19926;-76
2023/04/12 03:06:10;;;;;;;6.35;1.70;;;7.20;99.90;;;;;;7403014;19;19918;-76
2023/04/12 03:08:39;;;;;;;5.57;2.20;;;7.10;99.90;;;;;;7402213;19;19932;-76
2023/04/12 03:11:09;;;;;;;3.45;1.67;;;7.60;99.90;;;;;;7403604;19;19947;-75
2023/04/12 03:13:40;;;;;;;8.32;1.90;;;7.10;99.90;;;;;;7403459;19;20341;-76
2023/04/12 03:16:23;;;;;;;3.90;1.63;;;7.30;99.90;;;;;;7403237;19;19947;-75
2023/04/12 03:18:52;;;;;;;6.50;1.90;;;7.00;99.90;;;;;;7401509;19;19998;-76
2023/04/12 03:21:21;;;;;;;3.80;1.45;;;7.00;99.90;;;;;;7402343;19;19946;-76
2023/04/12 03:23:51;;;;;;;5.18;1.60;;;7.40;99.90;;;;;;7403457;19;20006;-75
2023/04/12 03:26:21;;;;;;;6.45;2.15;;;8.10;99.90;;;;;;7398713;19;19922;-76
2023/04/12 03:28:52;;;;;;;6.20;1.67;;;7.00;99.90;;;;;;7401137;19;19919;-76
2023/04/12 03:31:22;;;;;;;4.65;1.98;;;8.00;99.90;;;;;;7400748;19;19918;-76
2023/04/12 03:33:51;;;;;;;6.85;1.80;;;7.20;99.90;;;;;;7405076;19;19919;-75
2023/04/12 03:36:23;;;;;;;;;;;7.00;99.90;;;;;;7402120;19;19934;-76
2023/04/12 03:38:52;;;;;;;5.80;2.10;;;7.10;99.90;;;;;;7401285;19;20340;-75
2023/04/12 03:41:20;;;;;;;3.40;1.65;;;6.90;99.90;;;;;;7401844;19;19933;-75
2023/04/12 03:43:53;;;;;;;5.40;2.10;;;7.90;99.90;;;;;;7401852;19;19910;-75
2023/04/12 03:46:22;;;;;;;10.43;2.53;;;7.20;99.90;;;;;;7401340;19;19935;-75
2023/04/12 03:48:51;;;;;;;3.15;1.60;;;7.20;99.90;;;;;;7404018;19;19919;-75
2023/04/12 03:51:20;;;;;;;6.85;2.22;;;7.10;99.90;;;;;;7402257;19;19982;-75
2023/04/12 03:53:49;;;;;;;5.65;2.05;;;7.20;99.90;;;;;;7400571;19;19918;-76
2023/04/12 03:56:19;;;;;;;6.07;1.77;;;7.10;99.90;;;;;;7401824;19;20395;-76
2023/04/12 03:58:48;;;;;;;5.90;1.52;;;7.10;99.90;;;;;;7401579;19;20384;-75
2023/04/12 04:01:20;;;;;;;5.88;1.92;;;7.10;99.90;;;;;;7401402;19;19922;-75
2023/04/12 04:03:49;;;;;;;;;;;8.00;99.90;;;;;;7407328;19;20648;-75
2023/04/12 04:06:23;;;;;;;7.03;2.00;;;7.10;99.90;;;;;;7402466;19;19914;-75
2023/04/12 04:08:54;;;;;;;7.63;2.30;;;7.10;99.90;;;;;;7403241;19;19915;-75
2023/04/12 04:11:23;;;;;;;8.10;2.28;;;7.10;99.90;;;;;;7403041;19;19927;-75
2023/04/12 04:13:52;;;;;;;5.45;2.42;;;6.90;99.90;;;;;;7401922;19;20316;-74
2023/04/12 04:16:23;;;;;;;5.25;2.13;;;7.20;99.90;;;;;;7400128;19;19924;-75
2023/04/12 04:18:52;;;;;;;14.50;3.05;;;7.60;99.90;;;;;;7402077;19;20515;-75
2023/04/12 04:21:22;;;;;;;7.20;1.77;;;7.10;99.90;;;;;;7401781;19;19914;-75
2023/04/12 04:23:51;;;;;;;5.53;1.95;;;7.20;99.90;;;;;;7400124;19;19926;-75
2023/04/12 04:26:32;;;;;;;6.38;2.15;;;6.50;99.90;;;;;;7401169;19;19923;-75
2023/04/12 04:29:03;;;;;;;5.82;1.90;;;7.00;99.90;;;;;;7401094;19;20329;-75
2023/04/12 04:31:36;;;;;;;6.07;2.40;;;7.80;99.90;;;;;;7399181;19;20360;-75
2023/04/12 04:34:25;;;;;;;8.18;1.65;;;7.00;99.90;;;;;;7399563;19;19930;-76
2023/04/12 04:37:14;;;;;;;6.40;2.25;;;7.00;99.90;;;;;;7397373;19;19914;-76
2023/04/12 04:40:06;;;;;;;4.75;2.15;;;7.40;99.90;;;;;;7398127;19;19925;-75
2023/04/12 04:42:56;;;;;;;4.10;1.80;;;7.10;99.90;;;;;;7398869;19;19982;-76
2023/04/12 04:45:29;;;;;;;6.32;2.40;;;7.00;99.90;;;;;;7400429;19;19923;-75
2023/04/12 04:48:02;;;;;;;3.17;1.95;;;7.00;99.90;;;;;;7398316;19;19929;-74
2023/04/12 04:50:31;;;;;;;7.22;2.15;;;7.80;99.90;;;;;;7400010;19;19925;-76
2023/04/12 04:53:00;;;;;;;4.32;1.73;;;7.90;99.90;;;;;;7400763;19;19947;-74
2023/04/12 04:55:29;;;;;;;5.30;1.42;;;7.00;99.90;;;;;;7399070;19;19984;-76
2023/04/12 04:57:59;;;;;;;6.53;1.80;;;7.20;99.90;;;;;;7401535;19;19918;-75
2023/04/12 05:00:28;;;;;;;5.90;1.50;;;7.10;99.90;;;;;;7394489;19;19926;-75
2023/04/12 05:02:59;;;;;;;8.75;1.50;;;7.10;99.90;;;;;;7396534;19;20341;-76
2023/04/12 05:05:29;;;;;;;3.08;1.42;;;7.00;99.90;;;;;;7399341;19;19957;-76
2023/04/12 05:07:58;;;;;;;6.43;2.17;;;7.10;99.90;;;;;;7396502;19;19922;-75
2023/04/12 05:10:27;;;;;;;8.65;1.70;;;6.90;99.90;;;;;;7402590;19;19979;-76
2023/04/12 05:12:56;;;;;;;4.03;1.45;;;8.20;99.90;;;;;;7399077;19;19919;-77
2023/04/12 05:15:25;;;;;;;6.43;1.60;;;6.90;99.90;;;;;;7398175;19;19915;-76
2023/04/12 05:17:54;;;;;;;4.53;1.20;;;6.90;99.90;;;;;;7399985;19;19974;-76
2023/04/12 05:20:26;;;;;;;4.22;1.50;;;7.80;99.90;;;;;;7397425;19;19942;-76
2023/04/12 05:22:56;;;;;;;6.18;1.65;;;7.00;99.90;;;;;;7400244;19;20377;-76
2023/04/12 05:25:25;;;;;;;2.67;1.27;;;6.80;99.90;;;;;;7396484;19;19919;-76
2023/04/12 05:27:54;;;;;;;5.10;1.20;;;7.30;99.90;;;;;;7399032;19;19926;-76
2023/04/12 05:30:23;;;;;;;3.35;1.25;;;7.00;99.90;;;;;;7399052;19;19948;-76
2023/04/12 05:32:53;;;;;;;3.15;1.13;;;6.90;99.90;;;;;;7397595;19;19928;-75
2023/04/12 05:35:26;;;;;;;6.28;1.42;;;7.00;99.90;;;;;;7400606;19;19986;-75
2023/04/12 05:37:55;;;;;;;5.60;1.30;;;6.90;99.90;;;;;;7396217;19;20279;-76
2023/04/12 05:40:24;;;;;;;3.67;1.30;;;6.90;99.90;;;;;;7395953;19;19919;-76
2023/04/12 05:42:53;;;;;;;1.85;1.20;;;7.00;99.90;;;;;;7398920;19;19917;-76
2023/04/12 05:45:22;;;;;;;4.22;1.65;;;7.00;99.90;;;;;;7399945;19;19938;-76
2023/04/12 05:47:52;;;;;;;5.20;1.40;;;7.00;99.90;;;;;;7401219;19;19942;-75
2023/04/12 05:50:21;;;;;;;2.55;1.10;;;7.10;99.90;;;;;;7405478;19;20268;-75
2023/04/12 05:52:57;;;;;;;4.72;1.27;;;7.00;99.90;;;;;;7405745;19;19993;-75
2023/04/12 05:55:26;;;;;;;4.03;1.30;;;7.10;99.90;;;;;;7407360;19;19971;-75
2023/04/12 05:57:56;;;;;;;3.80;1.40;;;7.00;99.90;;;;;;7406027;19;20377;-75
2023/04/12 06:00:25;;;;;;;2.50;1.02;;;7.40;99.90;;;;;;7402548;19;19922;-77
2023/04/12 06:02:55;;;;;;;2.35;0.95;;;7.00;99.90;;;;;;7402625;19;19930;-75
2023/04/12 06:05:25;;;;;;;4.00;1.40;;;6.80;99.90;;;;;;7399804;19;19952;-75
2023/04/12 06:07:58;;;;;;;4.53;1.40;;;6.90;99.90;;;;;;7400957;19;19923;-76
2023/04/12 06:10:27;;;;;;;5.80;1.52;;;6.90;99.90;;;;;;7402678;19;20262;-75
2023/04/12 06:12:56;;;;;;;4.35;1.00;;;6.90;99.90;;;;;;7404324;19;19926;-75
2023/04/12 06:15:25;;;;;;;2.75;1.30;;;6.90;99.90;;;;;;7406135;19;19926;-75
2023/04/12 06:17:54;;;;;;;1.85;1.13;;;6.90;99.90;;;;;;7403871;19;19994;-75
2023/04/12 06:20:23;;;;;;;5.47;1.17;;;7.00;99.90;;;;;;7400141;19;20554;-82
2023/04/12 06:22:52;;;;;;;8.25;1.50;;;7.10;99.90;;;;;;7400567;19;19939;-78
2023/04/12 06:25:25;;;;;;;3.63;1.48;;;6.90;99.90;;;;;;7404483;19;19926;-77
2023/04/12 06:27:57;;;;;;;5.45;1.30;;;6.90;99.90;;;;;;7403389;19;19929;-77
2023/04/12 06:30:26;;;;;;;3.65;1.30;;;6.90;99.90;;;;;;7402754;19;20019;-78
2023/04/12 06:32:55;;;;;;;3.47;1.40;;;6.90;99.90;;;;;;7400708;19;20327;-77
2023/04/12 06:35:25;;;;;;;2.38;1.10;;;6.90;99.90;;;;;;7401294;19;19935;-78
2023/04/12 06:37:54;;;;;;;3.00;0.90;;;6.90;99.90;;;;;;7401578;19;20261;-77
2023/04/12 06:40:25;;;;;;;7.40;1.52;;;7.30;99.90;;;;;;7399332;19;19922;-77
2023/04/12 06:42:55;;;;;;;3.70;1.38;;;7.00;99.90;;;;;;7404572;19;19930;-77
2023/04/12 06:45:24;;;;;;;6.68;1.40;;;7.00;99.90;;;;;;7401177;19;19982;-77
2023/04/12 06:47:55;;;;;;;3.53;1.02;;;6.00;99.90;;;;;;7399506;19;19926;-77
2023/04/12 06:50:28;;;;;;;4.38;0.90;;;7.00;99.90;;;;;;7405571;19;19919;-76
2023/04/12 06:52:57;;;;;;;6.45;1.55;;;7.00;99.90;;;;;;7399998;19;19979;-77
2023/04/12 06:55:29;;;;;;;5.75;1.45;;;7.00;99.90;;;;;;7403592;19;19923;-77
2023/04/12 06:57:58;;;;;;;3.60;1.23;;;7.00;99.90;;;;;;7399757;19;19923;-77
2023/04/12 07:00:27;;;;;;;2.42;1.33;;;7.00;99.90;;;;;;7396649;19;20347;-77
2023/04/12 07:02:56;;;;;;;5.65;1.60;;;6.90;99.90;;;;;;7401897;19;19925;-76
2023/04/12 07:05:25;;;;;;;6.05;1.30;;;7.00;99.90;;;;;;7401823;19;19950;-77
2023/04/12 07:07:54;;;;;;;3.17;1.10;;;6.70;99.90;;;;;;7404848;19;20485;-76
2023/04/12 07:10:24;;;;;;;3.28;1.38;;;6.90;99.90;;;;;;7404738;19;19918;-77
2023/04/12 07:13:01;;;;;;;7.47;1.40;;;6.90;99.90;;;;;;7404484;19;20340;-76
2023/04/12 07:15:30;;;;;;;2.30;1.00;;;7.20;99.90;;;;;;7404297;19;19915;-77
2023/04/12 07:17:59;;;;;;;2.42;1.10;;;7.30;99.90;;;;;;7401040;19;20011;-76
2023/04/12 07:20:28;;;;;;;3.63;1.10;;;6.80;99.90;;;;;;7399240;19;19918;-76
2023/04/12 07:22:57;;;;;;;3.28;1.20;;;6.90;99.90;;;;;;7398708;19;19926;-77
2023/04/12 07:25:26;;;;;;;5.55;1.30;;;7.00;99.90;;;;;;7400209;19;19915;-77
2023/04/12 07:27:58;;;;;;;2.60;1.30;;;6.80;99.90;;;;;;7401447;19;19990;-76
2023/04/12 07:30:27;;;;;;;2.53;0.95;;;7.00;99.90;;;;;;7399869;19;20466;-76
2023/04/12 07:32:59;;;;;;;7.30;1.42;;;6.90;99.90;;;;;;7401082;19;19938;-77
2023/04/12 07:35:28;;;;;;;3.70;1.40;;;7.00;99.90;;;;;;7398066;19;19915;-78
2023/04/12 07:38:05;;;;;;;2.20;1.05;;;8.10;99.90;;;;;;7399577;19;19926;-77
2023/04/12 07:40:34;;;;;;;2.55;1.25;;;7.10;99.90;;;;;;7399534;19;19923;-77
2023/04/12 07:43:06;;;;;;;9.25;2.25;;;7.00;99.90;;;;;;7400789;19;19922;-76
2023/04/12 07:45:37;;;;;;;2.72;1.50;;;7.30;99.90;;;;;;7400531;19;20235;-76
2023/04/12 07:48:12;;;;;;;5.90;1.13;;;7.10;99.90;;;;;;7401525;19;19990;-77
2023/04/12 07:50:42;;;;;;;3.20;1.42;;;7.10;99.90;;;;;;7401940;19;20352;-77
2023/04/12 07:53:21;;;;;;;3.55;1.30;;;7.10;99.90;;;;;;7400904;19;20368;-77
2023/04/12 07:55:51;;;;;;;3.92;1.80;;;7.10;99.90;;;;;;7401091;19;19922;-76
2023/04/12 07:58:23;;;;;;;2.08;1.30;;;7.10;99.90;;;;;;7403031;19;20373;-77
2023/04/12 08:00:56;;;;;;;3.50;1.70;;;7.20;99.90;;;;;;7400385;19;20273;-77
2023/04/12 08:03:25;;;;;;;2.50;1.20;;;7.10;99.90;;;;;;7398461;19;19922;-77
2023/04/12 08:05:54;;;;;;;3.42;1.40;;;7.20;99.90;;;;;;7401487;19;20259;-77
2023/04/12 08:08:23;;;;;;;3.28;1.40;;;7.10;99.90;;;;;;7398444;19;19942;-76
2023/04/12 08:10:53;;;;;;;2.30;1.38;;;7.40;99.90;;;;;;7398547;19;19922;-77
2023/04/12 08:13:25;;;;;;;2.20;1.45;;;7.10;99.90;;;;;;7399693;19;19915;-78
2023/04/12 08:15:56;;;;;;;5.07;1.77;;;7.10;99.90;;;;;;7401846;19;20278;-77
2023/04/12 08:18:25;;;;;;;2.50;1.50;;;7.20;99.90;;;;;;7400672;19;20312;-77
2023/04/12 08:20:54;;;;;;;3.65;1.58;;;7.10;99.90;;;;;;7399367;19;20003;-77
2023/04/12 08:23:23;;;;;;;2.63;1.33;;;7.20;99.90;;;;;;7397203;19;20347;-77
2023/04/12 08:25:58;;;;;;;2.70;1.60;;;7.10;99.90;;;;;;7397664;19;20490;-76
2023/04/12 08:28:29;;;;;;;4.57;1.52;;;7.10;99.90;;;;;;7397805;19;19957;-77
2023/04/12 08:30:58;;;;;;;4.50;1.40;;;7.10;99.90;;;;;;7401794;19;20250;-76
2023/04/12 08:33:27;;;;;;;3.53;1.35;;;7.70;99.90;;;;;;7397820;19;19926;-76
2023/04/12 08:35:56;;;;;;;3.28;1.80;;;7.60;99.90;;;;;;7400314;19;19922;-77
2023/04/12 08:38:26;;;;;;;8.15;1.80;;;7.10;99.90;;;;;;7399982;19;19930;-77
2023/04/12 08:40:56;;;;;;;3.00;1.50;;;7.20;99.90;;;;;;7400517;19;20521;-76
2023/04/12 08:43:31;;;;;;;4.80;1.90;;;7.40;99.90;;;;;;7397785;19;19919;-77
2023/04/12 08:46:02;;;;;;;2.85;1.70;;;7.20;99.90;;;;;;7396153;19;19922;-76
2023/04/12 08:48:36;;;;;;;3.50;2.15;;;7.30;99.90;;;;;;7397927;19;20451;-77
2023/04/12 08:51:07;;;;;;;4.80;1.80;;;7.30;99.90;;;;;;7401024;19;19918;-77
2023/04/12 08:53:36;;;;;;;5.10;1.40;;;7.40;99.90;;;;;;7398259;19;20324;-76
2023/04/12 08:56:08;;;;;;;3.17;1.58;;;7.50;99.90;;;;;;7399027;19;20481;-77
2023/04/12 08:58:40;;;;;;;3.15;1.55;;;7.40;99.90;;;;;;7399176;19;20019;-77
2023/04/12 09:01:14;;;;;;;3.28;1.33;;;8.00;99.90;;;;;;7396917;19;19918;-77
2023/04/12 09:03:44;;;;;;;2.05;1.48;;;7.50;99.90;;;;;;7396784;19;19918;-77
2023/04/12 09:06:13;;;;;;;6.20;1.60;;;7.40;99.90;;;;;;7398782;19;20010;-77
2023/04/12 09:08:59;;;;;;;2.67;1.77;;;7.60;99.90;;;;;;7397660;19;19926;-76
2023/04/12 09:11:30;;;;;;;3.08;1.45;;;7.40;99.90;;;;;;7394591;19;19923;-77
2023/04/12 09:14:01;;;;;;;4.70;2.28;;;7.40;99.90;;;;;;7398086;19;19942;-77
2023/04/12 09:16:37;;;;;;;3.42;1.60;;;8.00;99.90;;;;;;7395718;19;19919;-77
2023/04/12 09:19:06;;;;;;;2.05;1.48;;;7.60;99.90;;;;;;7396746;19;19978;-77
2023/04/12 09:21:36;;;;;;;3.80;1.60;;;7.70;99.90;;;;;;7395880;19;19918;-77
2023/04/12 09:24:08;;;;;;;2.58;1.95;;;7.70;99.90;;;;;;7397090;19;20035;-77
2023/04/12 09:26:37;;;;;;;2.85;1.70;;;7.80;99.90;;;;;;7404756;19;19918;-77
2023/04/12 09:29:24;;;;;;;2.63;1.60;;;7.90;99.90;;;;;;7404312;19;20280;-77
2023/04/12 09:32:03;;;;;;;3.83;1.77;;;7.80;99.90;;;;;;7398048;19;19918;-77
2023/04/12 09:34:36;;;;;;;3.20;1.35;;;7.90;99.90;;;;;;7404227;19;19946;-77
2023/04/12 09:37:15;;;;;;;3.75;1.90;;;7.90;99.90;;;;;;7403213;19;19943;-77
2023/04/12 09:39:45;;;;;;;1.40;1.30;;;7.70;99.90;;;;;;7403768;19;19935;-77
2023/04/12 09:42:16;;;;;;;2.20;1.33;;;7.60;99.90;;;;;;7398311;19;20424;-77
2023/04/12 09:44:48;;;;;;;3.70;1.80;;;7.70;99.90;;;;;;7406080;19;20261;-77
2023/04/12 09:47:17;;;;;;;2.47;1.65;;;7.80;99.90;;;;;;7405413;19;19961;-77
2023/04/12 09:49:47;;;;;;;2.75;2.13;;;7.70;99.90;;;;;;7400863;19;19923;-77
2023/04/12 09:52:20;;;;;;;3.63;1.90;;;7.60;99.90;;;;;;7401722;19;19928;-77
2023/04/12 09:54:50;;;;;;;1.92;1.58;;;8.50;99.90;;;;;;7401584;19;19918;-77
2023/04/12 09:57:20;;;;;;;3.83;1.88;;;7.70;99.90;;;;;;7402430;19;19926;-77
2023/04/12 09:59:52;;;;;;;2.45;1.50;;;7.70;99.90;;;;;;7402939;19;20430;-77
2023/04/12 10:02:28;;;;;;;2.28;1.70;;;7.80;99.90;;;;;;7397885;19;19922;-77
2023/04/12 10:05:03;;;;;;;4.53;1.42;;;7.60;99.90;;;;;;7402426;19;19926;-77
2023/04/12 10:07:32;;;;;;;2.90;1.50;;;7.70;99.90;;;;;;7403688;19;19958;-76
2023/04/12 10:10:03;;;;;;;2.33;1.40;;;7.80;99.90;;;;;;7401076;19;20500;-78
2023/04/12 10:12:33;;;;;;;3.28;1.52;;;7.80;99.90;;;;;;7403435;19;19919;-79
2023/04/12 10:15:11;;;;;;;1.70;1.40;;;7.80;99.90;;;;;;7405519;19;19925;-76
2023/04/12 10:17:52;;;;;;;2.83;1.40;;;7.80;99.90;;;;;;7402778;19;20252;-78
2023/04/12 10:20:23;;;;;;;3.00;1.55;;;7.80;99.90;;;;;;7406231;19;20273;-78
2023/04/12 10:22:54;;;;;;;2.05;1.55;;;7.80;99.90;;;;;;7404250;19;19914;-74
2023/04/12 10:25:25;;;;;;;2.90;1.45;;;8.00;99.90;;;;;;7406328;19;20236;-74
2023/04/12 10:27:55;;;;;;;3.25;1.30;;;8.10;99.90;;;;;;7405255;19;19979;-74
2023/04/12 10:30:28;;;;;;;2.15;1.30;;;8.20;99.90;;;;;;7401924;19;19919;-74
2023/04/12 10:33:19;;;;;;;2.25;1.20;;;8.20;99.90;;;;;;7406287;19;19926;-74
2023/04/12 10:36:02;;;;;;;3.47;1.60;;;9.20;99.90;;;;;;7404291;19;20356;-74
2023/04/12 10:38:36;;;;;;;1.98;1.48;;;8.20;99.90;;;;;;7404349;19;19960;-74
2023/04/12 10:41:17;;;;;;;2.53;1.67;;;8.30;99.90;;;;;;7404081;19;19933;-74
2023/04/12 10:43:47;;;;;;;2.20;1.77;;;9.50;99.90;;;;;;7403896;19;19928;-74
2023/04/12 10:46:46;;;;;;;3.53;1.83;;;8.70;99.90;;;;;;7401868;19;19919;-76
2023/04/12 10:49:18;;;;;;;1.83;1.38;;;8.80;99.90;;;;;;7402016;19;20271;-76
2023/04/12 10:52:23;;;;;;;2.45;1.90;;;8.70;99.90;;;;;;7406591;19;19915;-76
2023/04/12 10:54:52;;;;;;;5.25;2.03;;;8.60;99.90;;;;;;7401324;19;19941;-77
2023/04/12 10:57:42;;;;;;;2.10;1.90;;;9.00;99.90;;;;;;7401278;19;19933;-73
2023/04/12 11:00:13;;;;;;;2.42;2.03;;;9.10;99.90;;;;;;7399411;19;20015;-74
2023/04/12 11:03:10;;;;;;;4.07;2.10;;;9.30;99.90;;;;;;7401383;19;19918;-74
2023/04/12 11:06:03;;;;;;;3.40;2.33;;;9.30;99.90;;;;;;7401172;19;19911;-73
2023/04/12 11:08:33;;;;;;;3.08;2.05;;;9.50;99.90;;;;;;7401015;19;19915;-74
2023/04/12 11:11:04;;;;;;;5.38;1.98;;;9.60;99.90;;;;;;7404607;19;20058;-74
2023/04/12 11:13:37;;;;;;;2.80;1.92;;;9.70;99.90;;;;;;7403205;19;19914;-74
2023/04/12 11:16:07;;;;;;;2.53;2.33;;;9.60;99.90;;;;;;7402325;19;20290;-75
2023/04/12 11:18:37;;;;;;;2.88;2.10;;;9.80;99.90;;;;;;7409550;19;19922;-75
2023/04/12 11:21:08;;;;;;;3.33;1.90;;;9.90;99.90;;;;;;7400449;19;19922;-74
2023/04/12 11:23:41;;;;;;;2.35;1.90;;;10.00;99.90;;;;;;7401262;19;19974;-74
2023/04/12 11:26:10;;;;;;;2.80;1.70;;;10.00;99.90;;;;;;7405191;19;20005;-74
2023/04/12 11:28:39;;;;;;;3.88;2.10;;;10.00;99.90;;;;;;7402687;19;19982;-74
2023/04/12 11:31:08;;;;;;;4.07;2.10;;;10.10;99.90;;;;;;7401082;19;19927;-74
2023/04/12 11:33:38;;;;;;;5.10;2.33;;;9.90;99.90;;;;;;7400896;19;19994;-74
2023/04/12 11:36:12;;;;;;;3.58;1.75;;;10.20;99.90;;;;;;7398175;19;19950;-74
2023/04/12 11:38:42;;;;;;;2.45;2.10;;;10.10;99.90;;;;;;7399515;19;19923;-74
2023/04/12 11:41:11;;;;;;;3.58;2.25;;;10.20;99.90;;;;;;7398960;19;19926;-74
2023/04/12 11:43:41;;;;;;;4.47;2.50;;;10.40;99.90;;;;;;7398759;19;19933;-74
2023/04/12 11:46:10;;;;;;;6.07;2.40;;;10.40;99.90;;;;;;7396673;19;19990;-75
2023/04/12 11:48:42;;;;;;;3.67;2.28;;;10.50;99.90;;;;;;7398936;19;19930;-74
2023/04/12 11:51:27;;;;;;;2.97;1.95;;;10.60;99.90;;;;;;7397635;19;20295;-74
2023/04/12 11:53:57;;;;;;;2.67;2.08;;;10.60;99.90;;;;;;7397819;19;19978;-75
2023/04/12 11:56:27;;;;;;;3.72;1.90;;;10.60;99.90;;;;;;7393977;19;20368;-75
2023/04/12 11:58:55;;;;;;;3.33;1.60;;;10.80;99.90;;;;;;7398161;19;19918;-75
2023/04/12 12:01:26;;;;;;;2.67;2.22;;;10.80;99.90;;;;;;7393312;19;20094;-75
2023/04/12 12:03:56;;;;;;;5.47;1.80;;;10.60;99.90;;;;;;7398751;19;19982;-75
2023/04/12 12:06:28;;;;;;;4.28;1.90;;;10.80;99.90;;;;;;7398800;19;19970;-74
2023/04/12 12:08:57;;;;;;;5.85;2.15;;;10.70;99.90;;;;;;7401581;19;19922;-75
2023/04/12 12:11:26;;;;;;;5.15;1.52;;;10.70;99.90;;;;;;7401657;19;19919;-75
2023/04/12 12:13:56;;;;;;;5.28;2.25;;;10.70;99.90;;;;;;7401186;19;19926;-75
2023/04/12 12:16:29;;;;;;;4.35;1.60;;;10.80;99.90;;;;;;7399167;19;19926;-74
2023/04/12 12:18:59;;;;;;;4.13;1.80;;;11.00;99.90;;;;;;7401017;19;19922;-75
2023/04/12 12:21:30;;;;;;;4.20;1.60;;;11.10;99.90;;;;;;7399298;19;19933;-74
2023/04/12 12:23:59;;;;;;;5.15;1.85;;;11.40;99.90;;;;;;7398498;19;19935;-75
2023/04/12 12:26:30;;;;;;;4.75;1.92;;;11.60;99.90;;;;;;7400495;19;19946;-75
2023/04/12 12:29:00;;;;;;;3.95;1.73;;;11.70;99.90;;;;;;7400092;19;19935;-75
2023/04/12 12:31:30;;;;;;;3.70;1.70;;;11.80;99.90;;;;;;7397553;19;20276;-75
2023/04/12 12:34:00;;;;;;;6.38;2.47;;;12.10;99.90;;;;;;7397092;19;19922;-75
2023/04/12 12:36:37;;;;;;;4.78;1.70;;;12.20;99.90;;;;;;7402217;19;19923;-75
2023/04/12 12:39:09;;;;;;;4.55;1.80;;;12.20;99.90;;;;;;7396027;19;20400;-75
2023/04/12 12:41:39;;;;;;;4.47;1.70;;;12.20;99.90;;;;;;7398827;19;19915;-75
2023/04/12 12:44:11;;;;;;;5.72;1.70;;;12.30;99.90;;;;;;7397871;19;19923;-75
2023/04/12 12:46:39;;;;;;;4.45;1.77;;;12.60;99.90;;;;;;7396047;19;19930;-75
2023/04/12 12:49:08;;;;;;;5.35;1.50;;;12.60;99.90;;;;;;7397825;19;20348;-75
2023/04/12 12:51:40;;;;;;;5.85;1.50;;;12.50;99.90;;;;;;7397257;19;19930;-77
2023/04/12 12:54:09;;;;;;;5.65;1.77;;;12.60;99.90;;;;;;7395652;19;19933;-75
2023/04/12 12:56:38;;;;;;;3.80;1.70;;;12.30;99.90;;;;;;7399015;19;19923;-75
2023/04/12 12:59:07;;;;;;;4.20;1.50;;;12.40;99.90;;;;;;7396526;19;20025;-74
2023/04/12 13:01:36;;;;;;;5.15;2.00;;;12.20;99.90;;;;;;7398898;19;19922;-75
2023/04/12 13:04:05;;;;;;;6.70;2.60;;;12.00;99.90;;;;;;7400610;19;20480;-74
2023/04/12 13:06:34;;;;;;;6.00;1.50;;;11.80;99.90;;;;;;7401525;19;19982;-74
2023/04/12 13:09:05;;;;;;;7.60;2.30;;;11.60;99.90;;;;;;7398019;19;19921;-75
2023/04/12 13:11:34;;;;;;;4.95;1.58;;;11.50;99.90;;;;;;7396956;19;20358;-74
2023/04/12 13:14:03;;;;;;;5.90;2.08;;;11.50;99.90;;;;;;7392991;19;19934;-75
2023/04/12 13:16:32;;;;;;;6.22;2.22;;;11.40;99.90;;;;;;7395387;19;19937;-76
2023/04/12 13:19:01;;;;;;;4.15;1.50;;;11.40;99.90;;;;;;7396652;19;19922;-75
2023/04/12 13:21:30;;;;;;;6.57;1.42;;;11.30;99.90;;;;;;7397484;19;19914;-75